createdAt,value
2023-01-27T00:00:32.308Z,-4.35
2023-01-27T00:01:32.304Z,-4.29
2023-01-27T00:02:32.514Z,-4.32
2023-01-27T00:03:32.477Z,-4.38
2023-01-27T00:04:32.312Z,-4.46
2023-01-27T00:05:32.309Z,-4.42
2023-01-27T00:06:32.315Z,-4.50
2023-01-27T00:07:32.322Z,-4.51
2023-01-27T00:08:32.334Z,-4.49
2023-01-27T00:09:32.314Z,-4.63
2023-01-27T00:10:32.321Z,-4.57
2023-01-27T00:11:32.337Z,-4.56
2023-01-27T00:12:32.322Z,-4.61
2023-01-27T00:13:32.317Z,-4.68
2023-01-27T00:14:32.328Z,-4.60
2023-01-27T00:15:32.320Z,-4.61
2023-01-27T00:16:32.339Z,-4.61
2023-01-27T00:17:32.362Z,-4.56
2023-01-27T00:18:32.325Z,-4.58
2023-01-27T00:19:32.330Z,-4.67
2023-01-27T00:20:32.327Z,-4.60
2023-01-27T00:21:32.339Z,-4.58
2023-01-27T00:22:32.334Z,-4.74
2023-01-27T00:23:32.337Z,-4.79
2023-01-27T00:24:32.345Z,-4.81
2023-01-27T00:25:32.348Z,-4.83
2023-01-27T00:26:32.350Z,-4.77
2023-01-27T00:27:32.359Z,-4.72
2023-01-27T00:28:32.349Z,-4.74
2023-01-27T00:29:32.341Z,-4.79
2023-01-27T00:30:32.383Z,-4.83
2023-01-27T00:31:32.415Z,-4.79
2023-01-27T00:34:32.348Z,-4.86
2023-01-27T00:35:32.347Z,-4.86
2023-01-27T00:36:32.350Z,-4.87
2023-01-27T00:37:32.348Z,-4.96
2023-01-27T00:38:32.348Z,-4.87
2023-01-27T00:39:32.353Z,-4.87
2023-01-27T00:40:32.349Z,-4.95
2023-01-27T00:41:32.353Z,-5.11
2023-01-27T00:42:32.348Z,-4.99
2023-01-27T00:43:32.380Z,-4.95
2023-01-27T00:44:32.357Z,-5.00
2023-01-27T00:45:32.379Z,-4.95
2023-01-27T00:46:32.390Z,-5.03
2023-01-27T00:47:32.362Z,-4.93
2023-01-27T00:48:32.369Z,-4.87
2023-01-27T00:49:32.362Z,-4.90
2023-01-27T00:50:32.357Z,-4.89
2023-01-27T00:51:32.361Z,-4.95
2023-01-27T00:52:32.374Z,-4.95
2023-01-27T00:53:32.369Z,-4.97
2023-01-27T00:54:32.368Z,-4.95
2023-01-27T00:55:32.365Z,-5.11
2023-01-27T00:56:32.363Z,-5.08
2023-01-27T00:57:32.365Z,-5.11
2023-01-27T00:58:32.370Z,-5.10
2023-01-27T00:59:32.391Z,-5.14
2023-01-27T01:00:32.361Z,-5.10
2023-01-27T01:01:32.417Z,-5.13
2023-01-27T01:02:32.422Z,-5.19
2023-01-27T01:03:32.374Z,-5.23
2023-01-27T01:04:32.366Z,-5.29
2023-01-27T01:05:32.375Z,-5.22
2023-01-27T01:06:32.371Z,-5.25
2023-01-27T01:07:32.382Z,-5.18
2023-01-27T01:08:32.376Z,-5.32
2023-01-27T01:09:32.371Z,-5.33
2023-01-27T01:10:32.370Z,-5.29
2023-01-27T01:11:32.380Z,-5.46
2023-01-27T01:12:32.380Z,-5.44
2023-01-27T01:13:32.389Z,-5.59
2023-01-27T01:14:32.379Z,-5.62
2023-01-27T01:15:32.393Z,-5.61
2023-01-27T01:16:32.377Z,-5.61
2023-01-27T01:17:32.379Z,-5.72
2023-01-27T01:18:32.378Z,-5.69
2023-01-27T01:19:32.382Z,-5.65
2023-01-27T01:20:32.376Z,-5.75
2023-01-27T01:21:32.377Z,-5.75
2023-01-27T01:22:32.378Z,-5.61
2023-01-27T01:23:32.381Z,-5.71
2023-01-27T01:24:32.375Z,-5.66
2023-01-27T01:25:32.378Z,-5.68
2023-01-27T01:26:32.377Z,-5.72
2023-01-27T01:27:32.377Z,-5.83
2023-01-27T01:28:32.377Z,-5.79
2023-01-27T01:29:32.382Z,-5.83
2023-01-27T01:30:32.453Z,-5.80
2023-01-27T01:31:32.456Z,-5.69
2023-01-27T01:32:32.382Z,-5.82
2023-01-27T01:33:32.376Z,-5.74
2023-01-27T01:34:32.376Z,-5.79
2023-01-27T01:35:32.378Z,-5.79
2023-01-27T01:36:32.381Z,-5.75
2023-01-27T01:37:32.376Z,-5.75
2023-01-27T01:38:32.376Z,-5.75
2023-01-27T01:39:32.381Z,-5.79
2023-01-27T01:40:32.376Z,-5.82
2023-01-27T01:41:32.377Z,-5.83
2023-01-27T01:42:32.382Z,-5.87
2023-01-27T01:43:32.387Z,-5.90
2023-01-27T01:44:32.391Z,-5.86
2023-01-27T01:45:32.396Z,-6.04
2023-01-27T01:46:32.414Z,-6.00
2023-01-27T01:47:32.393Z,-6.00
2023-01-27T01:48:32.413Z,-6.03
2023-01-27T01:49:32.378Z,-6.00
2023-01-27T01:50:32.373Z,-5.90
2023-01-27T01:51:32.384Z,-5.89
2023-01-27T01:52:32.373Z,-5.90
2023-01-27T01:53:32.377Z,-5.83
2023-01-27T01:54:32.370Z,-5.74
2023-01-27T01:55:32.375Z,-5.80
2023-01-27T01:56:32.385Z,-5.79
2023-01-27T01:57:32.375Z,-5.83
2023-01-27T01:58:32.382Z,-5.83
2023-01-27T01:59:32.374Z,-5.66
2023-01-27T02:00:32.371Z,-5.72
2023-01-27T02:01:32.423Z,-5.66
2023-01-27T02:02:32.394Z,-5.65
2023-01-27T02:03:32.395Z,-5.69
2023-01-27T02:04:32.382Z,-5.75
2023-01-27T02:05:32.375Z,-5.64
2023-01-27T02:06:32.384Z,-5.66
2023-01-27T02:07:32.372Z,-5.65
2023-01-27T02:08:32.378Z,-5.68
2023-01-27T02:09:32.377Z,-5.66
2023-01-27T02:10:32.368Z,-5.72
2023-01-27T02:11:32.395Z,-5.74
2023-01-27T02:12:32.379Z,-5.69
2023-01-27T02:13:32.376Z,-5.65
2023-01-27T02:14:32.369Z,-5.66
2023-01-27T02:15:32.373Z,-5.65
2023-01-27T02:16:32.416Z,-5.71
2023-01-27T02:17:32.387Z,-5.64
2023-01-27T02:18:32.369Z,-5.65
2023-01-27T02:19:32.399Z,-5.65
2023-01-27T02:20:32.371Z,-5.68
2023-01-27T02:21:32.374Z,-5.75
2023-01-27T02:22:32.367Z,-5.72
2023-01-27T02:23:32.374Z,-5.69
2023-01-27T02:24:32.374Z,-5.74
2023-01-27T02:25:32.373Z,-5.79
2023-01-27T02:26:32.428Z,-5.79
2023-01-27T02:27:32.371Z,-5.79
2023-01-27T02:28:32.370Z,-5.76
2023-01-27T02:29:32.373Z,-5.79
2023-01-27T02:30:32.454Z,-5.80
2023-01-27T02:31:32.605Z,-5.76
2023-01-27T02:32:32.369Z,-5.83
2023-01-27T02:33:32.381Z,-5.84
2023-01-27T02:34:32.381Z,-5.83
2023-01-27T02:35:32.397Z,-5.89
2023-01-27T02:36:32.377Z,-6.00
2023-01-27T02:37:32.376Z,-6.03
2023-01-27T02:38:32.373Z,-6.05
2023-01-27T02:39:32.395Z,-5.89
2023-01-27T02:40:32.372Z,-5.90
2023-01-27T02:41:32.372Z,-5.84
2023-01-27T02:42:32.379Z,-5.83
2023-01-27T02:43:32.373Z,-5.75
2023-01-27T02:44:32.373Z,-5.93
2023-01-27T02:45:32.371Z,-6.07
2023-01-27T02:46:32.462Z,-6.05
2023-01-27T02:47:32.374Z,-6.21
2023-01-27T02:48:32.372Z,-6.25
2023-01-27T02:49:32.377Z,-6.21
2023-01-27T02:50:32.373Z,-6.32
2023-01-27T02:51:32.394Z,-6.31
2023-01-27T02:52:32.367Z,-6.37
2023-01-27T02:53:32.375Z,-6.39
2023-01-27T02:54:32.374Z,-6.43
2023-01-27T02:55:32.371Z,-6.44
2023-01-27T02:56:32.368Z,-6.42
2023-01-27T02:57:32.378Z,-6.44
2023-01-27T02:58:32.369Z,-6.36
2023-01-27T02:59:32.370Z,-6.46
2023-01-27T03:00:32.371Z,-6.47
2023-01-27T03:01:32.415Z,-6.34
2023-01-27T03:02:32.420Z,-6.37
2023-01-27T03:03:32.376Z,-6.34
2023-01-27T03:04:32.376Z,-6.29
2023-01-27T03:05:32.374Z,-6.32
2023-01-27T03:06:32.366Z,-6.34
2023-01-27T03:07:32.396Z,-6.36
2023-01-27T03:08:32.363Z,-6.28
2023-01-27T03:09:32.367Z,-6.23
2023-01-27T03:10:32.362Z,-6.34
2023-01-27T03:11:32.364Z,-6.28
2023-01-27T03:12:32.364Z,-6.26
2023-01-27T03:13:32.366Z,-6.21
2023-01-27T03:14:32.367Z,-6.18
2023-01-27T03:15:32.455Z,-6.16
2023-01-27T03:16:32.460Z,-5.98
2023-01-27T03:17:32.366Z,-6.05
2023-01-27T03:18:32.362Z,-6.08
2023-01-27T03:19:32.361Z,-5.98
2023-01-27T03:20:32.360Z,-6.01
2023-01-27T03:21:32.360Z,-6.15
2023-01-27T03:22:32.368Z,-6.19
2023-01-27T03:23:32.382Z,-6.19
2023-01-27T03:24:32.356Z,-6.11
2023-01-27T03:25:32.360Z,-6.15
2023-01-27T03:26:32.358Z,-6.13
2023-01-27T03:27:32.361Z,-6.13
2023-01-27T03:28:32.364Z,-6.19
2023-01-27T03:29:32.459Z,-6.15
2023-01-27T03:30:32.358Z,-6.19
2023-01-27T03:31:32.530Z,-6.16
2023-01-27T03:32:32.356Z,-6.04
2023-01-27T03:33:32.357Z,-6.08
2023-01-27T03:34:32.359Z,-6.04
2023-01-27T03:35:32.363Z,-6.07
2023-01-27T03:36:32.351Z,-6.05
2023-01-27T03:37:32.365Z,-6.19
2023-01-27T03:38:32.355Z,-6.15
2023-01-27T03:39:32.394Z,-6.22
2023-01-27T03:40:32.350Z,-6.29
2023-01-27T03:41:32.353Z,-6.23
2023-01-27T03:42:32.351Z,-6.26
2023-01-27T03:43:32.353Z,-6.18
2023-01-27T03:44:32.352Z,-6.34
2023-01-27T03:45:32.363Z,-6.32
2023-01-27T03:46:32.365Z,-6.21
2023-01-27T03:47:32.361Z,-6.21
2023-01-27T03:48:32.374Z,-6.25
2023-01-27T03:49:32.353Z,-6.36
2023-01-27T03:50:32.348Z,-6.28
2023-01-27T03:51:32.348Z,-6.25
2023-01-27T03:52:32.350Z,-6.29
2023-01-27T03:53:32.356Z,-6.32
2023-01-27T03:54:32.350Z,-6.31
2023-01-27T03:55:32.379Z,-6.37
2023-01-27T03:56:32.366Z,-6.37
2023-01-27T03:57:32.348Z,-6.29
2023-01-27T03:58:32.347Z,-6.21
2023-01-27T03:59:32.350Z,-6.29
2023-01-27T04:00:32.348Z,-6.36
2023-01-27T04:01:32.370Z,-6.28
2023-01-27T04:02:32.442Z,-6.37
2023-01-27T04:03:32.377Z,-6.31
2023-01-27T04:04:32.341Z,-6.21
2023-01-27T04:05:32.354Z,-6.21
2023-01-27T04:06:32.339Z,-6.19
2023-01-27T04:07:32.348Z,-6.19
2023-01-27T04:08:32.338Z,-6.15
2023-01-27T04:09:32.356Z,-6.21
2023-01-27T04:10:32.340Z,-6.22
2023-01-27T04:11:32.364Z,-6.23
2023-01-27T04:12:32.348Z,-6.19
2023-01-27T04:13:32.341Z,-6.19
2023-01-27T04:14:32.338Z,-6.18
2023-01-27T04:15:32.340Z,-6.22
2023-01-27T04:16:32.334Z,-6.29
2023-01-27T04:17:32.336Z,-6.11
2023-01-27T04:18:32.338Z,-6.28
2023-01-27T04:19:32.346Z,-6.28
2023-01-27T04:20:32.344Z,-6.26
2023-01-27T04:21:32.339Z,-6.25
2023-01-27T04:22:32.340Z,-6.25
2023-01-27T04:23:32.336Z,-6.25
2023-01-27T04:24:32.333Z,-6.13
2023-01-27T04:25:32.334Z,-6.21
2023-01-27T04:26:32.332Z,-6.10
2023-01-27T04:27:32.355Z,-6.10
2023-01-27T04:28:43.882Z,-6.11
2023-01-27T04:29:32.329Z,-6.18
2023-01-27T04:30:32.371Z,-6.16
2023-01-27T04:31:32.572Z,-6.16
2023-01-27T04:32:32.343Z,-6.25
2023-01-27T04:33:32.342Z,-6.13
2023-01-27T04:34:32.328Z,-6.18
2023-01-27T04:35:38.610Z,-6.21
2023-01-27T04:36:32.327Z,-6.16
2023-01-27T04:37:32.323Z,-6.23
2023-01-27T04:38:32.328Z,-6.26
2023-01-27T04:39:32.326Z,-6.25
2023-01-27T04:40:32.338Z,-6.22
2023-01-27T04:41:32.323Z,-6.15
2023-01-27T04:42:32.325Z,-6.13
2023-01-27T04:43:32.341Z,-6.16
2023-01-27T04:44:32.322Z,-6.16
2023-01-27T04:45:32.328Z,-6.16
2023-01-27T04:46:32.322Z,-6.15
2023-01-27T04:47:32.325Z,-6.13
2023-01-27T04:48:32.324Z,-6.19
2023-01-27T04:49:32.336Z,-6.18
2023-01-27T04:50:32.321Z,-6.18
2023-01-27T04:51:32.317Z,-6.21
2023-01-27T04:52:32.322Z,-6.13
2023-01-27T04:53:32.332Z,-6.16
2023-01-27T04:54:32.325Z,-6.19
2023-01-27T04:55:32.317Z,-6.11
2023-01-27T04:56:32.323Z,-6.19
2023-01-27T04:57:32.318Z,-6.21
2023-01-27T04:58:32.323Z,-6.16
2023-01-27T04:59:32.347Z,-6.25
2023-01-27T05:00:32.324Z,-6.21
2023-01-27T05:01:32.510Z,-6.22
2023-01-27T05:02:32.317Z,-6.15
2023-01-27T05:03:32.321Z,-6.18
2023-01-27T05:04:32.318Z,-6.21
2023-01-27T05:05:32.320Z,-6.11
2023-01-27T05:06:32.318Z,-6.11
2023-01-27T05:07:32.407Z,-6.15
2023-01-27T05:08:32.328Z,-6.05
2023-01-27T05:09:32.312Z,-6.00
2023-01-27T05:10:32.324Z,-6.04
2023-01-27T05:11:32.318Z,-6.01
2023-01-27T05:12:32.310Z,-6.08
2023-01-27T05:13:32.312Z,-6.08
2023-01-27T05:14:32.311Z,-5.94
2023-01-27T05:15:32.355Z,-6.08
2023-01-27T05:16:32.344Z,-5.98
2023-01-27T05:17:32.309Z,-6.01
2023-01-27T05:18:32.315Z,-6.08
2023-01-27T05:19:32.304Z,-6.07
2023-01-27T05:20:32.311Z,-6.04
2023-01-27T05:21:32.306Z,-6.11
2023-01-27T05:22:32.306Z,-6.00
2023-01-27T05:23:32.303Z,-6.04
2023-01-27T05:24:32.574Z,-5.98
2023-01-27T05:25:32.308Z,-6.01
2023-01-27T05:26:32.306Z,-6.01
2023-01-27T05:27:32.309Z,-5.92
2023-01-27T05:28:32.302Z,-6.03
2023-01-27T05:29:32.297Z,-6.05
2023-01-27T05:30:32.323Z,-6.00
2023-01-27T05:31:32.518Z,-6.03
2023-01-27T05:32:32.301Z,-6.00
2023-01-27T05:33:32.296Z,-6.00
2023-01-27T05:34:32.299Z,-6.07
2023-01-27T05:35:32.396Z,-6.05
2023-01-27T05:36:32.299Z,-6.03
2023-01-27T05:37:32.294Z,-6.11
2023-01-27T05:38:32.299Z,-6.15
2023-01-27T05:39:32.293Z,-6.13
2023-01-27T05:40:32.298Z,-6.13
2023-01-27T05:41:32.299Z,-6.11
2023-01-27T05:42:32.304Z,-6.23
2023-01-27T05:43:32.317Z,-6.22
2023-01-27T05:44:32.295Z,-6.26
2023-01-27T05:45:32.293Z,-6.26
2023-01-27T05:46:32.422Z,-6.31
2023-01-27T05:47:32.314Z,-6.36
2023-01-27T05:48:32.291Z,-6.22
2023-01-27T05:49:32.294Z,-6.31
2023-01-27T05:50:32.291Z,-6.26
2023-01-27T05:51:32.294Z,-6.22
2023-01-27T05:52:32.297Z,-6.22
2023-01-27T05:53:32.293Z,-6.26
2023-01-27T05:54:32.295Z,-6.26
2023-01-27T05:55:32.286Z,-6.40
2023-01-27T05:56:32.291Z,-6.31
2023-01-27T05:57:32.289Z,-6.34
2023-01-27T05:58:32.296Z,-6.28
2023-01-27T05:59:32.282Z,-6.32
2023-01-27T06:00:32.349Z,-6.28
2023-01-27T06:01:32.334Z,-6.28
2023-01-27T06:02:32.305Z,-6.29
2023-01-27T06:03:32.303Z,-6.25
2023-01-27T06:04:32.284Z,-6.36
2023-01-27T06:05:32.277Z,-6.34
2023-01-27T06:06:32.284Z,-6.25
2023-01-27T06:07:32.281Z,-6.28
2023-01-27T06:08:32.283Z,-6.25
2023-01-27T06:09:32.281Z,-6.29
2023-01-27T06:10:32.286Z,-6.32
2023-01-27T06:11:32.375Z,-6.29
2023-01-27T06:12:32.282Z,-6.25
2023-01-27T06:13:32.275Z,-6.28
2023-01-27T06:14:32.276Z,-6.19
2023-01-27T06:15:32.272Z,-6.25
2023-01-27T06:16:32.300Z,-6.26
2023-01-27T06:17:32.278Z,-6.31
2023-01-27T06:18:32.281Z,-6.28
2023-01-27T06:19:32.295Z,-6.32
2023-01-27T06:20:32.295Z,-6.39
2023-01-27T06:21:32.271Z,-6.39
2023-01-27T06:22:32.325Z,-6.32
2023-01-27T06:23:32.269Z,-6.37
2023-01-27T06:24:32.305Z,-6.29
2023-01-27T06:25:32.267Z,-6.31
2023-01-27T06:26:32.286Z,-6.21
2023-01-27T06:27:32.264Z,-6.26
2023-01-27T06:28:32.269Z,-6.23
2023-01-27T06:29:32.265Z,-6.23
2023-01-27T06:30:32.268Z,-6.19
2023-01-27T06:31:32.291Z,-6.10
2023-01-27T06:32:32.266Z,-6.07
2023-01-27T06:33:32.262Z,-6.03
2023-01-27T06:34:32.264Z,-5.97
2023-01-27T06:35:32.399Z,-6.00
2023-01-27T06:36:32.263Z,-6.01
2023-01-27T06:37:32.260Z,-5.97
2023-01-27T06:38:32.265Z,-6.05
2023-01-27T06:39:32.255Z,-6.03
2023-01-27T06:40:32.265Z,-6.07
2023-01-27T06:41:32.260Z,-6.01
2023-01-27T06:42:32.261Z,-6.05
2023-01-27T06:43:32.276Z,-6.11
2023-01-27T06:44:32.260Z,-6.04
2023-01-27T06:45:32.253Z,-6.03
2023-01-27T06:46:32.347Z,-6.04
2023-01-27T06:47:32.254Z,-6.00
2023-01-27T06:48:32.257Z,-6.08
2023-01-27T06:49:32.250Z,-6.03
2023-01-27T06:50:32.264Z,-5.98
2023-01-27T06:51:32.269Z,-6.04
2023-01-27T06:52:32.251Z,-5.90
2023-01-27T06:53:32.248Z,-5.89
2023-01-27T06:54:32.254Z,-5.83
2023-01-27T06:55:32.247Z,-5.75
2023-01-27T06:56:32.256Z,-5.79
2023-01-27T06:57:32.243Z,-5.76
2023-01-27T06:58:32.248Z,-5.75
2023-01-27T06:59:32.256Z,-5.74
2023-01-27T07:00:32.260Z,-5.79
2023-01-27T07:01:32.307Z,-5.82
2023-01-27T07:02:32.276Z,-5.72
2023-01-27T07:03:32.246Z,-5.83
2023-01-27T07:04:32.247Z,-5.79
2023-01-27T07:05:32.242Z,-5.87
2023-01-27T07:06:32.277Z,-5.87
2023-01-27T07:07:32.257Z,-5.86
2023-01-27T07:08:32.246Z,-5.90
2023-01-27T07:09:40.030Z,-5.89
2023-01-27T07:10:32.243Z,-5.89
2023-01-27T07:11:32.251Z,-5.93
2023-01-27T07:12:32.241Z,-5.92
2023-01-27T07:13:32.237Z,-5.94
2023-01-27T07:14:32.241Z,-5.98
2023-01-27T07:15:32.252Z,-6.00
2023-01-27T07:16:32.314Z,-5.87
2023-01-27T07:17:32.237Z,-5.90
2023-01-27T07:18:32.240Z,-5.89
2023-01-27T07:19:33.555Z,-5.90
2023-01-27T07:20:32.258Z,-5.89
2023-01-27T07:21:32.233Z,-5.90
2023-01-27T07:22:32.243Z,-5.90
2023-01-27T07:23:32.352Z,-5.87
2023-01-27T07:24:32.239Z,-5.92
2023-01-27T07:25:32.234Z,-5.98
2023-01-27T07:26:32.237Z,-5.89
2023-01-27T07:27:32.251Z,-5.87
2023-01-27T07:28:32.243Z,-5.94
2023-01-27T07:29:32.230Z,-5.87
2023-01-27T07:30:32.239Z,-5.94
2023-01-27T07:31:32.245Z,-6.01
2023-01-27T07:32:32.230Z,-6.00
2023-01-27T07:33:32.224Z,-6.03
2023-01-27T07:34:32.230Z,-6.04
2023-01-27T07:35:32.232Z,-6.05
2023-01-27T07:36:32.254Z,-6.07
2023-01-27T07:37:33.448Z,-5.98
2023-01-27T07:38:32.228Z,-6.05
2023-01-27T07:39:32.241Z,-6.11
2023-01-27T07:40:32.225Z,-6.04
2023-01-27T07:41:32.227Z,-6.03
2023-01-27T07:42:32.228Z,-6.05
2023-01-27T07:43:32.221Z,-6.08
2023-01-27T07:44:32.226Z,-6.07
2023-01-27T07:45:32.279Z,-6.05
2023-01-27T07:46:32.221Z,-6.01
2023-01-27T07:47:32.220Z,-5.86
2023-01-27T07:48:32.220Z,-5.87
2023-01-27T07:49:32.219Z,-5.93
2023-01-27T07:50:32.221Z,-5.89
2023-01-27T07:51:32.216Z,-5.94
2023-01-27T07:52:32.257Z,-5.93
2023-01-27T07:53:32.213Z,-5.89
2023-01-27T07:54:32.218Z,-5.94
2023-01-27T07:55:32.241Z,-5.86
2023-01-27T07:56:32.218Z,-5.86
2023-01-27T07:57:32.221Z,-5.90
2023-01-27T07:58:32.212Z,-5.82
2023-01-27T07:59:32.216Z,-5.80
2023-01-27T08:00:32.220Z,-5.80
2023-01-27T08:01:32.221Z,-5.74
2023-01-27T08:02:32.213Z,-5.75
2023-01-27T08:03:32.285Z,-5.82
2023-01-27T08:04:43.485Z,-5.84
2023-01-27T08:05:32.209Z,-5.75
2023-01-27T08:06:32.208Z,-5.75
2023-01-27T08:07:32.208Z,-5.76
2023-01-27T08:08:32.209Z,-5.86
2023-01-27T08:09:32.205Z,-5.86
2023-01-27T08:10:32.207Z,-5.80
2023-01-27T08:11:32.229Z,-5.80
2023-01-27T08:12:32.210Z,-5.82
2023-01-27T08:13:32.213Z,-5.79
2023-01-27T08:14:32.206Z,-5.69
2023-01-27T08:15:32.220Z,-5.62
2023-01-27T08:16:32.342Z,-5.62
2023-01-27T08:17:32.200Z,-5.57
2023-01-27T08:18:32.212Z,-5.53
2023-01-27T08:19:32.210Z,-5.50
2023-01-27T08:20:32.205Z,-5.50
2023-01-27T08:21:32.201Z,-5.53
2023-01-27T08:22:32.200Z,-5.39
2023-01-27T08:23:32.199Z,-5.47
2023-01-27T08:24:32.203Z,-5.46
2023-01-27T08:25:32.198Z,-5.43
2023-01-27T08:26:32.205Z,-5.33
2023-01-27T08:27:32.214Z,-5.37
2023-01-27T08:28:32.199Z,-5.26
2023-01-27T08:29:32.195Z,-5.26
2023-01-27T08:30:32.219Z,-5.27
2023-01-27T08:31:32.332Z,-5.18
2023-01-27T08:32:32.195Z,-5.14
2023-01-27T08:33:32.195Z,-5.07
2023-01-27T08:34:32.197Z,-5.08
2023-01-27T08:35:32.194Z,-4.93
2023-01-27T08:36:32.195Z,-4.85
2023-01-27T08:37:32.196Z,-4.83
2023-01-27T08:38:32.205Z,-4.68
2023-01-27T08:39:32.192Z,-4.58
2023-01-27T08:40:32.202Z,-4.49
2023-01-27T08:41:32.191Z,-4.38
2023-01-27T08:42:32.192Z,-4.49
2023-01-27T08:43:32.213Z,-4.24
2023-01-27T08:44:32.208Z,-4.17
2023-01-27T08:45:32.190Z,-4.17
2023-01-27T08:46:32.200Z,-4.15
2023-01-27T08:47:32.200Z,-4.14
2023-01-27T08:48:32.193Z,-4.11
2023-01-27T08:49:32.192Z,-3.88
2023-01-27T08:50:32.200Z,-3.76
2023-01-27T08:51:32.193Z,-3.86
2023-01-27T08:52:32.197Z,-3.85
2023-01-27T08:53:32.195Z,-3.79
2023-01-27T08:54:32.194Z,-3.69
2023-01-27T08:55:32.196Z,-3.63
2023-01-27T08:56:32.194Z,-3.56
2023-01-27T08:57:32.198Z,-3.43
2023-01-27T08:58:32.194Z,-3.42
2023-01-27T08:59:32.220Z,-3.30
2023-01-27T09:00:32.251Z,-3.17
2023-01-27T09:01:32.285Z,-3.06
2023-01-27T09:02:32.197Z,-2.96
2023-01-27T09:03:32.207Z,-2.81
2023-01-27T09:04:32.215Z,-2.74
2023-01-27T09:05:32.203Z,-2.67
2023-01-27T09:06:32.199Z,-2.67
2023-01-27T09:07:32.203Z,-2.64
2023-01-27T09:08:32.208Z,-2.40
2023-01-27T09:09:32.204Z,-2.50
2023-01-27T09:10:32.206Z,-2.32
2023-01-27T09:11:32.212Z,-2.32
2023-01-27T09:12:32.239Z,-2.52
2023-01-27T09:13:32.210Z,-2.68
2023-01-27T09:14:32.207Z,-2.71
2023-01-27T09:15:32.234Z,-2.68
2023-01-27T09:16:32.301Z,-2.60
2023-01-27T09:17:32.213Z,-2.46
2023-01-27T09:18:32.213Z,-2.32
2023-01-27T09:19:32.219Z,-2.24
2023-01-27T09:20:32.215Z,-2.24
2023-01-27T09:21:32.231Z,-2.10
2023-01-27T09:22:32.217Z,-2.18
2023-01-27T09:23:32.230Z,-2.21
2023-01-27T09:24:32.238Z,-2.06
2023-01-27T09:25:32.242Z,-2.02
2023-01-27T09:26:32.224Z,-1.92
2023-01-27T09:27:39.260Z,-1.77
2023-01-27T09:28:32.234Z,-1.77
2023-01-27T09:29:32.239Z,-1.84
2023-01-27T09:30:32.375Z,-2.10
2023-01-27T09:31:32.357Z,-2.13
2023-01-27T09:32:32.233Z,-2.10
2023-01-27T09:33:32.238Z,-1.90
2023-01-27T09:34:32.253Z,-1.73
2023-01-27T09:35:32.240Z,-1.54
2023-01-27T09:36:32.252Z,-1.55
2023-01-27T09:37:32.247Z,-1.61
2023-01-27T09:38:32.246Z,-1.69
2023-01-27T09:39:32.252Z,-1.55
2023-01-27T09:40:32.252Z,-1.58
2023-01-27T09:41:32.258Z,-1.61
2023-01-27T09:42:32.254Z,-1.66
2023-01-27T09:43:32.257Z,-1.70
2023-01-27T09:44:32.257Z,-1.52
2023-01-27T09:45:32.260Z,-1.38
2023-01-27T09:46:32.286Z,-1.22
2023-01-27T09:47:32.287Z,-0.97
2023-01-27T09:48:32.271Z,-0.80
2023-01-27T09:49:32.270Z,-0.72
2023-01-27T09:50:32.281Z,-0.76
2023-01-27T09:51:32.280Z,-0.73
2023-01-27T09:52:46.432Z,-0.94
2023-01-27T09:53:32.281Z,-0.85
2023-01-27T09:54:32.280Z,-0.85
2023-01-27T09:55:32.287Z,-1.22
2023-01-27T09:56:32.288Z,-1.45
2023-01-27T09:57:32.295Z,-1.41
2023-01-27T09:58:32.290Z,-1.38
2023-01-27T09:59:32.357Z,-1.23
2023-01-27T10:00:32.296Z,-0.94
2023-01-27T10:01:32.393Z,-0.99
2023-01-27T10:02:32.304Z,-0.95
2023-01-27T10:03:32.328Z,-0.97
2023-01-27T10:04:32.341Z,-0.78
2023-01-27T10:05:32.320Z,-0.78
2023-01-27T10:06:34.644Z,-0.60
2023-01-27T10:07:32.329Z,-0.31
2023-01-27T10:08:32.335Z,-0.04
2023-01-27T10:09:32.326Z,-0.03
2023-01-27T10:10:32.326Z,0.15
2023-01-27T10:11:32.337Z,0.02
2023-01-27T10:12:32.336Z,0.10
2023-01-27T10:13:32.342Z,0.18
2023-01-27T10:14:32.340Z,0.00
2023-01-27T10:15:32.445Z,-0.52
2023-01-27T10:16:32.363Z,-0.52
2023-01-27T10:17:32.359Z,-0.26
2023-01-27T10:18:32.364Z,0.07
2023-01-27T10:19:32.380Z,0.15
2023-01-27T10:20:32.372Z,0.13
2023-01-27T10:21:32.375Z,-0.18
2023-01-27T10:22:32.367Z,-0.33
2023-01-27T10:23:32.381Z,-0.51
2023-01-27T10:24:32.375Z,-0.33
2023-01-27T10:25:32.389Z,0.03
2023-01-27T10:26:32.384Z,0.28
2023-01-27T10:27:32.391Z,-0.10
2023-01-27T10:28:32.388Z,-0.40
2023-01-27T10:29:32.398Z,-0.14
2023-01-27T10:30:32.442Z,-0.33
2023-01-27T10:31:32.478Z,-0.36
2023-01-27T10:32:32.412Z,-0.39
2023-01-27T10:33:32.413Z,-0.37
2023-01-27T10:34:32.428Z,-0.73
2023-01-27T10:35:32.443Z,-0.64
2023-01-27T10:36:32.423Z,-1.22
2023-01-27T10:37:32.432Z,-0.99
2023-01-27T10:38:32.440Z,-0.54
2023-01-27T10:39:32.440Z,-0.76
2023-01-27T10:40:32.452Z,-0.31
2023-01-27T10:41:32.448Z,0.23
2023-01-27T10:42:32.461Z,0.79
2023-01-27T10:43:32.455Z,1.09
2023-01-27T10:44:32.461Z,-0.10
2023-01-27T10:45:32.538Z,-0.47
2023-01-27T10:46:32.501Z,-0.21
2023-01-27T10:47:32.477Z,0.20
2023-01-27T10:48:32.488Z,0.29
2023-01-27T10:49:32.489Z,0.57
2023-01-27T10:50:32.486Z,0.76
2023-01-27T10:51:32.513Z,1.05
2023-01-27T10:52:32.495Z,1.04
2023-01-27T10:53:32.501Z,0.39
2023-01-27T10:54:32.511Z,0.51
2023-01-27T10:55:32.614Z,-0.01
2023-01-27T10:56:32.532Z,0.04
2023-01-27T10:57:32.533Z,0.13
2023-01-27T10:58:32.544Z,0.24
2023-01-27T10:59:32.532Z,0.57
2023-01-27T11:01:32.569Z,1.58
2023-01-27T11:02:32.545Z,2.54
2023-01-27T11:03:32.559Z,2.39
2023-01-27T11:04:32.569Z,2.00
2023-01-27T11:05:32.568Z,1.93
2023-01-27T11:06:32.567Z,1.52
2023-01-27T11:07:32.631Z,1.84
2023-01-27T11:08:32.626Z,2.12
2023-01-27T11:09:32.588Z,1.47
2023-01-27T11:10:32.598Z,0.96
2023-01-27T11:11:32.597Z,0.72
2023-01-27T11:12:32.598Z,1.02
2023-01-27T11:13:32.607Z,1.24
2023-01-27T11:14:32.622Z,1.02
2023-01-27T11:15:32.622Z,1.20
2023-01-27T11:16:32.670Z,1.24
2023-01-27T11:17:32.628Z,1.50
2023-01-27T11:18:32.631Z,1.24
2023-01-27T11:19:32.639Z,0.29
2023-01-27T11:20:32.649Z,-0.08
2023-01-27T11:21:32.648Z,0.11
2023-01-27T11:22:32.651Z,0.75
2023-01-27T11:23:32.722Z,1.40
2023-01-27T11:24:32.665Z,0.80
2023-01-27T11:25:32.672Z,0.61
2023-01-27T11:26:32.678Z,0.57
2023-01-27T11:27:32.684Z,0.41
2023-01-27T11:28:32.691Z,0.17
2023-01-27T11:29:32.707Z,-0.04
2023-01-27T11:30:32.871Z,-0.25
2023-01-27T11:31:32.819Z,0.03
2023-01-27T11:32:32.712Z,0.07
2023-01-27T11:33:32.726Z,0.42
2023-01-27T11:34:32.724Z,0.58
2023-01-27T11:35:32.735Z,0.66
2023-01-27T11:36:32.738Z,0.78
2023-01-27T11:37:32.747Z,1.40
2023-01-27T11:38:32.746Z,1.77
2023-01-27T11:39:32.781Z,1.99
2023-01-27T11:40:32.759Z,1.90
2023-01-27T11:41:32.770Z,1.15
2023-01-27T11:42:32.804Z,0.93
2023-01-27T11:43:32.796Z,0.87
2023-01-27T11:44:32.793Z,1.36
2023-01-27T11:45:32.856Z,1.70
2023-01-27T11:46:32.793Z,1.23
2023-01-27T11:47:32.809Z,0.88
2023-01-27T11:48:32.808Z,1.52
2023-01-27T11:49:32.815Z,1.69
2023-01-27T11:50:32.816Z,2.14
2023-01-27T11:51:32.826Z,2.28
2023-01-27T11:52:32.832Z,2.75
2023-01-27T11:53:32.839Z,2.74
2023-01-27T11:54:32.844Z,2.77
2023-01-27T11:55:32.869Z,2.81
2023-01-27T11:56:32.859Z,2.95
2023-01-27T11:57:32.868Z,2.71
2023-01-27T11:58:32.867Z,2.23
2023-01-27T11:59:32.891Z,2.56
2023-01-27T12:00:32.890Z,2.42
2023-01-27T12:01:32.892Z,1.80
2023-01-27T12:02:32.895Z,1.50
2023-01-27T12:03:32.974Z,0.87
2023-01-27T12:04:32.925Z,1.00
2023-01-27T12:05:32.939Z,1.51
2023-01-27T12:06:32.923Z,1.36
2023-01-27T12:07:32.937Z,1.52
2023-01-27T12:08:32.935Z,2.03
2023-01-27T12:09:32.952Z,1.98
2023-01-27T12:10:32.961Z,2.25
2023-01-27T12:11:32.982Z,2.67
2023-01-27T12:12:32.966Z,2.67
2023-01-27T12:13:32.978Z,2.92
2023-01-27T12:14:32.977Z,3.05
2023-01-27T12:15:32.992Z,3.18
2023-01-27T12:16:32.991Z,3.47
2023-01-27T12:17:33.001Z,3.90
2023-01-27T12:18:33.006Z,4.02
2023-01-27T12:19:33.016Z,3.35
2023-01-27T12:20:33.019Z,2.85
2023-01-27T12:21:33.028Z,2.90
2023-01-27T12:22:33.094Z,2.99
2023-01-27T12:23:33.045Z,3.13
2023-01-27T12:24:33.048Z,3.39
2023-01-27T12:25:33.060Z,3.62
2023-01-27T12:26:33.066Z,4.18
2023-01-27T12:27:33.095Z,4.67
2023-01-27T12:28:33.082Z,5.31
2023-01-27T12:29:33.088Z,5.60
2023-01-27T12:30:33.095Z,5.93
2023-01-27T12:31:33.239Z,6.03
2023-01-27T12:32:33.117Z,5.91
2023-01-27T12:33:33.122Z,5.03
2023-01-27T12:34:33.126Z,4.67
2023-01-27T12:35:33.137Z,3.90
2023-01-27T12:36:33.142Z,3.61
2023-01-27T12:37:33.162Z,3.93
2023-01-27T12:38:33.170Z,4.41
2023-01-27T12:39:33.174Z,4.84
2023-01-27T12:40:33.174Z,5.43
2023-01-27T12:41:33.188Z,5.75
2023-01-27T12:42:33.192Z,6.19
2023-01-27T12:43:33.218Z,6.67
2023-01-27T12:44:33.216Z,7.02
2023-01-27T12:45:33.227Z,7.20
2023-01-27T12:46:33.284Z,7.25
2023-01-27T12:47:33.237Z,7.58
2023-01-27T12:48:33.245Z,7.52
2023-01-27T12:49:33.267Z,7.71
2023-01-27T12:50:33.259Z,7.60
2023-01-27T12:51:33.275Z,7.23
2023-01-27T12:52:33.280Z,7.23
2023-01-27T12:53:33.293Z,7.02
2023-01-27T12:54:33.297Z,7.17
2023-01-27T12:55:33.325Z,7.12
2023-01-27T12:56:33.316Z,7.03
2023-01-27T12:57:33.327Z,7.10
2023-01-27T12:58:33.336Z,7.28
2023-01-27T12:59:33.368Z,7.24
2023-01-27T13:00:33.387Z,6.98